Flight Track Log - Related Links

Times and Time Zones

All times are in EDT time to prevent confusion due to time zone crossing. See the ASQ5358 flight status page for this flight to view local times or setup timezone preferences in your user account.

Time Position Orientation Groundspeed Altitude Reporting Facility
EDT Latitude Longitude Course Direction KTS MPH feet Rate Location/Type
Thu 08:20:09 AM 33.6500 -84.3667 281° West 176 203 3,300  Level Atlanta TRACON
Thu 08:21:04 AM 33.6833 -84.3000 59° Northeast 259 298 5,100 2,380 Climbing Atlanta TRACON
Thu 08:22:10 AM 33.7667 -84.2833 North 294 338 8,100 2,600 Climbing Atlanta TRACON
Thu 08:23:04 AM 33.8167 -84.3333 320° Northwest 289 333 10,300 1,706 Climbing Atlanta TRACON
Thu 08:25:00 AM 33.7523 -84.9967 281° West  Level FlightAware Approximate
Thu 08:25:34 AM 33.8097 -84.5989 268° West 355 409 13,900  Level Atlanta Center
Thu 08:26:34 AM 33.8111 -84.7239 271° West 355 409 16,200 1,600 Climbing Atlanta Center
Thu 08:28:34 AM 33.8014 -84.9589 267° West 350 403 18,700 1,300 Climbing Atlanta Center
Thu 08:29:34 AM 33.8003 -85.0736 269° West 350 403 20,100 1,100 Climbing Atlanta Center
Thu 08:30:34 AM 33.8097 -85.1964 275° West 355 409 20,900 800 Climbing Atlanta Center
Thu 08:31:34 AM 33.8169 -85.3189 274° West 366 421 21,700 750 Climbing Atlanta Center
Thu 08:32:34 AM 33.8281 -85.4492 276° West 385 443 22,400 700 Climbing Atlanta Center
Thu 08:33:34 AM 33.8347 -85.5794 274° West 385 443 23,100 700 Climbing Atlanta Center
Thu 08:34:34 AM 33.8603 -85.7050 284° West 385 443 23,800 650 Climbing Atlanta Center
Thu 08:35:34 AM 33.8900 -85.8131 288° West 391 450 24,400 650 Climbing Atlanta Center
Thu 08:36:34 AM 33.9300 -85.9392 291° West 385 443 25,100 700 Climbing Atlanta Center
Thu 08:37:34 AM 33.9717 -86.0653 292° West 390 449 25,800 700 Climbing Atlanta Center
Thu 08:38:34 AM 34.0092 -86.1914 290° West 390 449 26,500 700 Climbing Atlanta Center
Thu 08:39:34 AM 34.0425 -86.3175 288° West 396 456 27,200 700 Climbing Atlanta Center
Thu 08:40:34 AM 34.0775 -86.4439 289° West 396 456 27,900 700 Climbing Atlanta Center
Thu 08:41:34 AM 34.1125 -86.5703 289° West 396 456 28,600 796 Climbing Atlanta Center
Thu 08:42:12 AM 34.1419 -86.6658 290° West 398 458 29,200 780 Climbing Memphis Center
Thu 08:43:14 AM 34.1758 -86.7917 288° West 398 458 29,900 677 Climbing Memphis Center
Thu 08:44:16 AM 34.2100 -86.9150 289° West 396 456 30,600 677 Climbing Memphis Center
Thu 08:45:18 AM 34.2444 -87.0383 289° West 392 451 31,300 683 Climbing Memphis Center
Thu 08:46:19 AM 34.2781 -87.1606 288° West 389 448 32,000 341 Climbing Memphis Center
Thu 08:47:21 AM 34.3117 -87.2803 289° West 384 442 32,000  Level Memphis Center
Thu 08:48:23 AM 34.3461 -87.4031 289° West 384 442 32,000  Level Memphis Center
Thu 08:49:25 AM 34.3847 -87.5531 287° West 385 443 32,000  Level Memphis Center
Thu 08:50:27 AM 34.4197 -87.6783 289° West 390 449 32,000  Level Memphis Center
Thu 08:51:29 AM 34.4536 -87.8053 288° West 394 453 32,000  Level Memphis Center
Thu 08:52:31 AM 34.4906 -87.9431 288° West 393 452 32,000  Level Memphis Center
Thu 08:53:33 AM 34.5242 -88.0700 288° West 394 453 32,000  Level Memphis Center
Thu 08:54:35 AM 34.5583 -88.1964 288° West 394 453 32,000  Level Memphis Center
Thu 08:55:37 AM 34.5914 -88.3242 287° West 394 453 32,000  Level Memphis Center
Thu 08:56:39 AM 34.6253 -88.4508 288° West 394 453 32,000  Level Memphis Center
Thu 08:57:40 AM 34.6611 -88.5906 287° West 395 455 32,000  Level Memphis Center
Thu 08:58:42 AM 34.6939 -88.7172 288° West 395 455 32,000  Level Memphis Center
Thu 08:59:44 AM 34.7272 -88.8442 288° West 395 455 32,000  Level Memphis Center
Thu 09:00:46 AM 34.7631 -88.9861 287° West 396 456 32,000  Level Memphis Center
Thu 09:01:48 AM 34.7961 -89.1133 288° West 396 456 32,000  Level Memphis Center
Thu 09:02:50 AM 34.8289 -89.2414 287° West 396 456 32,000  Level Memphis Center
Thu 09:03:52 AM 34.8603 -89.3686 287° West 396 456 32,000  Level Memphis Center
Thu 09:04:54 AM 34.9006 -89.5231 288° West 396 456 32,000  Level Memphis Center
Thu 09:05:56 AM 34.9325 -89.6519 287° West 396 456 32,000  Level Memphis Center
Thu 09:06:58 AM 34.9653 -89.7794 287° West 396 456 32,000  Level Memphis Center
Thu 09:08:00 AM 34.9967 -89.9075 287° West 396 456 32,000  Level Memphis Center
Thu 09:09:02 AM 35.0319 -90.0364 289° West 396 456 32,000  Level Memphis Center
Thu 09:10:04 AM 35.0728 -90.1631 292° West 397 457 32,000  Level Memphis Center
Thu 09:11:06 AM 35.1125 -90.2903 291° West 398 458 32,000  Level Memphis Center
Thu 09:12:08 AM 35.1608 -90.4422 291° West 398 458 32,000  Level Memphis Center
Thu 09:13:10 AM 35.2006 -90.5692 291° West 398 458 32,000  Level Memphis Center
Thu 09:14:12 AM 35.2403 -90.6964 291° West 398 458 32,000  Level Memphis Center
Thu 09:15:14 AM 35.2761 -90.8108 291° West 399 459 32,000  Level Memphis Center
Thu 09:16:16 AM 35.3228 -90.9631 291° West 399 459 32,000  Level Memphis Center
Thu 09:17:18 AM 35.3633 -91.0906 291° West 401 461 32,000  Level Memphis Center
Thu 09:18:20 AM 35.4039 -91.2194 291° West 402 463 32,000  Level Memphis Center
Thu 09:19:22 AM 35.4414 -91.3472 290° West 402 463 32,000  Level Memphis Center
Thu 09:20:24 AM 35.4811 -91.4767 291° West 402 463 32,000  Level Memphis Center
Thu 09:21:26 AM 35.5281 -91.6308 291° West 403 464 32,000  Level Memphis Center
Thu 09:22:28 AM 35.5667 -91.7606 290° West 403 464 32,000  Level Memphis Center
Thu 09:23:30 AM 35.6061 -91.8892 291° West 403 464 32,000  Level Memphis Center
Thu 09:24:32 AM 35.6439 -92.0181 290° West 403 464 32,000  Level Memphis Center
Thu 09:25:34 AM 35.6825 -92.1453 291° West 403 464 32,000 -581 Level Memphis Center
Thu 09:26:36 AM 35.7194 -92.2742 289° West 403 464 30,800 -1,500 Descending Memphis Center
Thu 09:27:38 AM 35.7650 -92.4311 290° West 405 466 28,900 -1,694 Descending Memphis Center
Thu 09:28:40 AM 35.8031 -92.5619 290° West 406 467 27,300 -1,548 Descending Memphis Center
Thu 09:29:42 AM 35.8414 -92.6908 290° West 406 467 25,700 -1,548 Descending Memphis Center
Thu 09:30:44 AM 35.8783 -92.8183 290° West 404 465 24,100 -1,548 Descending Memphis Center
Thu 09:31:46 AM 35.9147 -92.9447 290° West 400 460 22,500 -1,694 Descending Memphis Center
Thu 09:32:48 AM 35.9572 -93.0950 289° West 395 455 20,600 -1,742 Descending Memphis Center
Thu 09:33:50 AM 35.9931 -93.2186 290° West 390 449 18,900 -1,645 Descending Memphis Center
Thu 09:34:52 AM 36.0269 -93.3408 289° West 385 443 17,200 -1,790 Descending Memphis Center
Thu 09:35:54 AM 36.0614 -93.4608 290° West 379 436 15,200 -1,548 Descending Memphis Center
Thu 09:36:56 AM 36.0958 -93.5814 290° West 379 436 14,000 -532 Descending Memphis Center
Thu 09:37:58 AM 36.1358 -93.7214 290° West 366 421 14,100 -532 Climbing Memphis Center
Thu 09:39:00 AM 36.1661 -93.8300 289° West 344 396 12,900 -1,597 Descending Memphis Center
Thu 09:40:02 AM 36.1925 -93.9214 290° West 284 327 10,800 -2,032 Descending Memphis Center
Thu 09:41:04 AM 36.2103 -94.0150 283° West 281 323 8,700 -2,081 Descending Memphis Center
Thu 09:42:06 AM 36.2172 -94.1117 275° West 281 323 6,500 -1,887 Descending Memphis Center
Thu 09:43:08 AM 36.2661 -94.1750 314° West 283 326 4,800 -1,355 Descending Memphis Center
Thu 09:44:10 AM 36.3264 -94.2081 336° Northwest 259 298 3,700 -960 Descending Memphis Center
Thu 09:45:13 AM 36.3811 -94.2525 327° Northwest 222 255 2,800 -432 Descending Memphis Center
Thu 09:46:15 AM 36.3614 -94.3031 244° Southwest 181 208 2,800 -290 Level Memphis Center
Thu 09:47:17 AM 36.3317 -94.3289 215° Southwest 157 181 2,200 -484 Descending Memphis Center
Thu 09:48:19 AM 36.3008 -94.3158 161° South 146 168 1,800 -387 Descending Memphis Center

Login

Don't have an account? Register now (free) for customized features, flight alerts, and more!